Time;durP1;ratioP1;P1;durP2;ratioP2;P2;SDS_P1;SDS_P2;PMS_P1;PMS_P2;Temp;Humidity;BMP_temperature;BMP_pressure;BME280_temperature;BME280_humidity;BME280_pressure;Samples;Min_cycle;Max_cycle;Signal;HPM_P1;HPM_P2
2022/08/20 00:02:11;;;;;;;15.18;10.50;;;20.00;99.90;;;;;;7306564;32;20174;-66
2022/08/20 00:06:16;;;;;;;14.10;9.70;;;19.90;99.90;;;;;;7303233;32;20176;-66
2022/08/20 00:10:19;;;;;;;13.85;10.45;;;20.00;99.90;;;;;;7296805;32;20303;-66
2022/08/20 00:14:21;;;;;;;11.77;10.55;;;20.00;99.90;;;;;;7306628;32;20767;-66
2022/08/20 00:18:23;;;;;;;12.37;9.48;;;19.90;99.90;;;;;;7316787;32;20130;-67
2022/08/20 00:22:27;;;;;;;13.05;9.10;;;19.90;99.90;;;;;;7317337;32;20173;-65
2022/08/20 00:26:28;;;;;;;10.40;8.80;;;19.90;99.90;;;;;;7322044;32;20211;-65
2022/08/20 00:30:31;;;;;;;12.65;10.23;;;19.90;99.90;;;;;;7312593;32;21351;-66
2022/08/20 00:34:32;;;;;;;12.37;9.63;;;19.80;99.90;;;;;;7298486;32;20456;-65
2022/08/20 00:38:41;;;;;;;15.02;10.52;;;19.80;99.90;;;;;;7299018;32;20237;-64
2022/08/20 00:42:46;;;;;;;13.80;11.15;;;19.80;99.90;;;;;;7297243;32;20211;-66
2022/08/20 00:46:49;;;;;;;11.95;10.75;;;19.70;99.90;;;;;;7303160;32;20140;-66
2022/08/20 00:50:55;;;;;;;13.43;11.43;;;19.70;99.90;;;;;;7315739;32;20111;-66
2022/08/20 00:55:00;;;;;;;15.68;11.63;;;19.60;99.90;;;;;;7310205;32;20288;-66
2022/08/20 00:59:10;;;;;;;15.48;12.43;;;19.60;99.90;;;;;;7305080;32;20493;-66
2022/08/20 01:03:16;;;;;;;15.23;11.80;;;19.50;99.90;;;;;;7314686;32;20124;-66
2022/08/20 01:07:19;;;;;;;16.83;13.10;;;19.50;99.90;;;;;;7318377;32;20229;-66
2022/08/20 01:11:28;;;;;;;18.60;14.07;;;19.40;99.90;;;;;;7314501;32;20099;-65
2022/08/20 01:15:40;;;;;;;15.18;13.00;;;19.30;99.90;;;;;;7321701;32;20213;-67
2022/08/20 01:19:51;;;;;;;16.17;13.73;;;19.30;99.90;;;;;;7306146;32;20175;-65
2022/08/20 01:24:14;;;;;;;18.75;14.38;;;19.30;99.90;;;;;;7312085;32;20175;-65
2022/08/20 01:28:21;;;;;;;20.10;15.38;;;19.30;99.90;;;;;;7305629;32;20613;-64
2022/08/20 01:32:23;;;;;;;20.12;15.27;;;19.20;99.90;;;;;;7314923;32;20346;-65
2022/08/20 01:36:35;;;;;;;21.87;15.18;;;19.20;99.90;;;;;;7315763;32;20304;-65
2022/08/20 01:41:01;;;;;;;20.42;15.43;;;19.20;99.90;;;;;;7315145;32;20510;-65
2022/08/20 01:45:06;;;;;;;19.48;16.08;;;19.30;99.90;;;;;;7317505;32;20108;-65
2022/08/20 01:49:21;;;;;;;23.90;17.17;;;19.30;99.90;;;;;;7317580;32;20119;-65
2022/08/20 01:53:32;;;;;;;22.17;17.77;;;19.20;99.90;;;;;;7314196;32;20198;-64
2022/08/20 01:57:35;;;;;;;22.02;16.73;;;19.20;99.90;;;;;;7321040;32;20134;-64
2022/08/20 02:01:39;;;;;;;21.00;16.30;;;19.20;99.90;;;;;;7317518;32;20260;-65
2022/08/20 02:05:47;;;;;;;22.42;16.58;;;19.20;99.90;;;;;;7319827;32;20096;-65
2022/08/20 02:09:50;;;;;;;20.73;16.87;;;19.10;99.90;;;;;;7317929;32;20262;-65
2022/08/20 02:13:53;;;;;;;22.05;16.87;;;19.10;99.90;;;;;;7310304;32;20245;-65
2022/08/20 02:17:56;;;;;;;22.13;17.37;;;19.10;99.90;;;;;;7313558;32;20303;-65
2022/08/20 02:22:03;;;;;;;23.55;16.80;;;19.00;99.90;;;;;;7310809;32;20717;-64
2022/08/20 02:26:06;;;;;;;20.87;15.47;;;19.00;99.90;;;;;;7308658;32;20539;-65
2022/08/20 02:30:14;;;;;;;23.17;17.23;;;19.00;99.90;;;;;;7301170;32;20119;-65
2022/08/20 02:34:28;;;;;;;25.15;16.77;;;18.90;99.90;;;;;;7312491;32;20099;-65
2022/08/20 02:38:33;;;;;;;22.90;17.42;;;18.90;99.90;;;;;;7310404;32;20123;-65
2022/08/20 02:42:36;;;;;;;23.42;17.12;;;18.80;99.90;;;;;;7311886;32;20135;-66
2022/08/20 02:46:38;;;;;;;21.48;15.88;;;18.80;99.90;;;;;;7313990;32;20214;-64
2022/08/20 02:50:43;;;;;;;21.83;16.05;;;18.80;99.90;;;;;;7307270;32;20302;-65
2022/08/20 02:54:45;;;;;;;24.52;15.75;;;18.80;99.90;;;;;;7313128;32;20255;-64
2022/08/20 02:58:47;;;;;;;22.98;15.80;;;18.80;99.90;;;;;;7313669;32;20119;-65
2022/08/20 03:02:49;;;;;;;19.85;14.18;;;18.80;99.90;;;;;;7310638;32;20122;-63
2022/08/20 03:06:50;;;;;;;20.20;14.85;;;18.70;99.90;;;;;;7314976;32;20145;-63
2022/08/20 03:10:53;;;;;;;20.88;14.13;;;18.70;99.90;;;;;;7314418;32;20170;-65
2022/08/20 03:14:55;;;;;;;20.30;14.23;;;18.70;99.90;;;;;;7312373;32;20199;-65
2022/08/20 03:18:57;;;;;;;18.77;13.82;;;18.70;99.90;;;;;;7315997;32;20232;-65
2022/08/20 03:22:59;;;;;;;20.83;14.05;;;18.70;99.90;;;;;;7318246;32;20475;-65
2022/08/20 03:27:01;;;;;;;20.20;14.25;;;18.70;99.90;;;;;;7315562;32;20526;-65
2022/08/20 03:31:04;;;;;;;19.45;14.63;;;18.70;99.90;;;;;;7319221;32;20178;-64
2022/08/20 03:35:09;;;;;;;17.37;13.13;;;18.70;99.90;;;;;;7311122;32;20165;-64
2022/08/20 03:39:12;;;;;;;19.27;14.80;;;18.60;99.90;;;;;;7315449;32;20170;-65
2022/08/20 03:43:14;;;;;;;20.65;13.48;;;18.60;99.90;;;;;;7310463;32;20853;-65
2022/08/20 03:47:16;;;;;;;20.23;14.15;;;18.60;99.90;;;;;;7307755;32;20329;-65
2022/08/20 03:51:18;;;;;;;21.30;14.75;;;18.50;99.90;;;;;;7287374;32;20264;-65
2022/08/20 03:55:21;;;;;;;21.48;14.87;;;18.50;99.90;;;;;;7289487;32;20646;-65
2022/08/20 03:59:23;;;;;;;20.37;14.93;;;18.50;99.90;;;;;;7288326;32;20087;-65
2022/08/20 04:03:25;;;;;;;17.33;13.35;;;18.40;99.90;;;;;;7315443;32;20500;-66
2022/08/20 04:07:27;;;;;;;22.60;15.68;;;18.40;99.90;;;;;;7304861;32;20461;-66
2022/08/20 04:11:29;;;;;;;21.95;13.45;;;18.40;99.90;;;;;;7301934;32;20323;-66
2022/08/20 04:15:31;;;;;;;22.30;15.50;;;18.40;99.90;;;;;;7316070;32;20540;-65
2022/08/20 04:19:34;;;;;;;22.95;15.40;;;18.40;99.90;;;;;;7310955;32;20202;-66
2022/08/20 04:23:38;;;;;;;21.62;15.70;;;18.40;99.90;;;;;;7288499;32;20249;-64
2022/08/20 04:27:40;;;;;;;21.80;15.30;;;18.40;99.90;;;;;;7308517;32;20379;-65
2022/08/20 04:31:42;;;;;;;20.42;14.70;;;18.40;99.90;;;;;;7297519;32;20200;-66
2022/08/20 04:35:44;;;;;;;20.73;14.65;;;18.40;99.90;;;;;;7312020;32;20753;-66
2022/08/20 04:40:52;;;;;;;22.30;14.05;;;18.50;99.90;;;;;;7311028;32;20135;-66
2022/08/20 04:44:09;;;;;;;22.00;15.32;;;18.50;99.90;;;;;;7290970;32;20355;-65
2022/08/20 04:48:22;;;;;;;23.00;14.68;;;18.60;99.90;;;;;;7309907;32;21371;-66
2022/08/20 04:52:24;;;;;;;17.90;14.57;;;18.60;99.90;;;;;;7308388;32;20326;-67
2022/08/20 04:56:29;;;;;;;18.65;12.35;;;18.70;99.90;;;;;;7307107;32;20187;-67
2022/08/20 05:00:32;;;;;;;17.62;11.82;;;18.70;99.90;;;;;;7313926;32;20143;-66
2022/08/20 05:04:34;;;;;;;17.75;11.40;;;18.60;99.90;;;;;;7307058;32;20293;-67
2022/08/20 05:08:37;;;;;;;15.05;10.90;;;18.50;99.90;;;;;;7314190;32;20103;-67
2022/08/20 05:12:40;;;;;;;15.05;10.35;;;18.50;99.90;;;;;;7316799;32;20122;-67
2022/08/20 05:16:42;;;;;;;12.65;9.23;;;18.40;99.90;;;;;;7321528;32;20162;-67
2022/08/20 05:20:45;;;;;;;13.32;9.88;;;18.40;99.90;;;;;;7319442;32;20467;-66
2022/08/20 05:24:46;;;;;;;12.60;9.50;;;18.40;99.90;;;;;;7313565;32;20146;-67
2022/08/20 05:28:48;;;;;;;14.20;9.75;;;18.30;99.90;;;;;;7323919;32;20108;-67
2022/08/20 05:33:02;;;;;;;8.25;6.03;;;18.30;99.90;;;;;;7318336;32;20214;-67
2022/08/20 05:37:04;;;;;;;10.48;6.43;;;18.30;99.90;;;;;;7319294;32;20104;-67
2022/08/20 05:41:09;;;;;;;11.90;7.68;;;18.30;99.90;;;;;;7321166;32;20318;-67
2022/08/20 05:45:11;;;;;;;8.77;7.12;;;18.30;99.90;;;;;;7320983;32;20170;-67
2022/08/20 05:49:19;;;;;;;12.93;8.00;;;18.40;99.90;;;;;;7316136;32;20607;-66
2022/08/20 05:53:23;;;;;;;11.98;8.45;;;18.40;99.90;;;;;;7316402;32;20270;-68
2022/08/20 05:57:25;;;;;;;8.85;7.53;;;18.40;99.90;;;;;;7314807;32;20132;-65
2022/08/20 06:01:27;;;;;;;8.38;7.35;;;18.40;99.90;;;;;;7303879;32;20189;-64
2022/08/20 06:05:29;;;;;;;10.30;7.80;;;18.50;99.90;;;;;;7304931;32;20137;-67
2022/08/20 06:09:46;;;;;;;8.57;7.60;;;18.40;99.90;;;;;;7317143;32;20194;-66
2022/08/20 06:13:47;;;;;;;9.77;7.37;;;18.40;99.90;;;;;;7322496;32;20176;-65
2022/08/20 06:17:49;;;;;;;8.80;6.85;;;18.40;99.90;;;;;;7314939;32;20205;-65
2022/08/20 06:22:00;;;;;;;7.75;6.93;;;18.50;99.90;;;;;;7316808;32;20100;-66
2022/08/20 06:26:02;;;;;;;9.25;7.25;;;18.40;99.90;;;;;;7317224;32;20104;-65
2022/08/20 06:30:05;;;;;;;9.40;7.60;;;18.30;99.90;;;;;;7316152;32;20679;-65
2022/08/20 06:34:07;;;;;;;11.50;9.77;;;18.30;99.90;;;;;;7312544;32;20088;-67
2022/08/20 06:38:11;;;;;;;15.13;11.95;;;18.40;99.90;;;;;;7296273;32;20367;-67
2022/08/20 06:42:13;;;;;;;16.37;12.40;;;18.40;99.90;;;;;;7317647;32;20562;-65
2022/08/20 06:46:22;;;;;;;25.42;19.45;;;18.50;99.90;;;;;;7314172;32;20733;-66
2022/08/20 06:50:38;;;;;;;24.92;19.65;;;18.60;99.90;;;;;;7314092;32;20188;-65
2022/08/20 06:54:48;;;;;;;35.55;24.30;;;18.70;99.90;;;;;;7315173;32;20123;-66
2022/08/20 06:58:50;;;;;;;39.70;27.67;;;18.90;99.90;;;;;;7313547;32;20336;-65
2022/08/20 07:02:52;;;;;;;43.38;30.23;;;19.00;99.90;;;;;;7315476;32;20240;-65
2022/08/20 07:06:56;;;;;;;49.47;36.40;;;19.00;99.90;;;;;;7298274;32;20196;-64
2022/08/20 07:10:58;;;;;;;48.30;37.22;;;19.00;99.90;;;;;;7311164;32;20184;-66
2022/08/20 07:15:00;;;;;;;51.03;39.60;;;19.00;99.90;;;;;;7285984;32;20528;-68
2022/08/20 07:19:03;;;;;;;54.10;39.65;;;18.90;99.90;;;;;;7308647;32;20108;-65
2022/08/20 07:23:07;;;;;;;59.75;41.97;;;18.90;99.90;;;;;;7312794;32;20108;-67
2022/08/20 07:27:08;;;;;;;54.95;39.58;;;19.00;99.90;;;;;;7310743;32;20280;-66
2022/08/20 07:35:32;;;;;;;53.33;39.08;;;19.00;99.90;;;;;;7303984;32;20608;-66
2022/08/20 07:39:34;;;;;;;52.67;40.03;;;18.90;99.90;;;;;;7299546;32;20882;-67
2022/08/20 07:43:38;;;;;;;56.65;39.58;;;18.90;99.90;;;;;;7300612;32;20138;-70
2022/08/20 07:47:41;;;;;;;51.92;37.88;;;18.90;99.90;;;;;;7312832;32;20151;-70
2022/08/20 07:51:43;;;;;;;50.28;36.35;;;18.90;99.90;;;;;;7307447;32;20210;-65
2022/08/20 07:55:45;;;;;;;51.88;35.67;;;18.80;99.90;;;;;;7308245;32;20257;-66
2022/08/20 08:00:00;;;;;;;49.60;33.88;;;18.90;99.90;;;;;;7296628;32;20130;-67
2022/08/20 08:04:02;;;;;;;52.40;36.38;;;18.90;99.90;;;;;;7312672;32;20132;-67
2022/08/20 08:08:12;;;;;;;46.42;32.40;;;18.90;99.90;;;;;;7294138;32;20178;-66
2022/08/20 08:12:14;;;;;;;41.90;29.87;;;19.00;99.90;;;;;;7301449;32;20172;-69
2022/08/20 08:16:18;;;;;;;36.22;28.35;;;18.90;99.90;;;;;;7308617;32;20243;-66
2022/08/20 08:20:20;;;;;;;38.03;29.02;;;18.80;99.90;;;;;;7310822;32;20269;-69
2022/08/20 08:24:22;;;;;;;40.70;28.10;;;18.60;99.90;;;;;;7312174;32;20876;-67
2022/08/20 08:28:29;;;;;;;40.20;29.73;;;18.70;99.90;;;;;;7313421;32;20104;-70
2022/08/20 08:32:31;;;;;;;41.45;28.98;;;18.80;99.90;;;;;;7302497;32;20225;-70
2022/08/20 08:36:49;;;;;;;41.22;26.70;;;18.80;99.90;;;;;;7323498;32;20134;-69
2022/08/20 08:40:55;;;;;;;35.90;26.60;;;18.90;99.90;;;;;;7309871;32;20202;-70
2022/08/20 08:45:03;;;;;;;42.95;26.95;;;18.90;99.90;;;;;;7318794;32;20533;-70
2022/08/20 08:49:05;;;;;;;42.35;27.67;;;18.80;99.90;;;;;;7314337;32;20129;-70
2022/08/20 08:53:30;;;;;;;41.58;25.95;;;18.90;99.90;;;;;;7313862;32;20231;-68
2022/08/20 08:57:31;;;;;;;38.70;25.95;;;18.90;99.90;;;;;;7311277;32;20194;-67
2022/08/20 09:02:01;;;;;;;35.45;23.15;;;19.00;99.90;;;;;;7311425;32;20226;-68
2022/08/20 09:06:03;;;;;;;31.80;22.17;;;19.10;99.90;;;;;;7308395;32;20176;-68
2022/08/20 09:10:05;;;;;;;35.50;22.25;;;19.00;99.90;;;;;;7316637;32;20565;-67
2022/08/20 09:14:07;;;;;;;32.55;21.00;;;19.00;99.90;;;;;;7315646;32;20688;-67
2022/08/20 09:18:16;;;;;;;31.08;20.67;;;19.00;99.90;;;;;;7318461;32;20230;-69
2022/08/20 09:22:25;;;;;;;34.65;21.00;;;19.20;99.90;;;;;;7317285;32;20179;-69
2022/08/20 09:26:27;;;;;;;34.58;21.37;;;19.40;99.90;;;;;;7314033;32;20219;-68
2022/08/20 09:30:29;;;;;;;27.92;18.90;;;19.30;99.90;;;;;;7319402;32;20253;-69
2022/08/20 09:34:38;;;;;;;32.13;19.50;;;19.30;99.90;;;;;;7319955;32;20268;-69
2022/08/20 09:38:40;;;;;;;28.40;18.80;;;19.50;99.90;;;;;;7343023;32;20171;-69
2022/08/20 09:42:41;;;;;;;25.70;18.40;;;19.40;99.90;;;;;;7339990;32;20687;-69
2022/08/20 09:46:43;;;;;;;29.27;17.87;;;19.50;99.90;;;;;;7325053;32;20192;-68
2022/08/20 09:50:48;;;;;;;30.52;17.52;;;19.60;99.90;;;;;;7322173;32;20201;-69
2022/08/20 09:54:52;;;;;;;26.45;16.92;;;19.50;99.90;;;;;;7323638;32;20463;-68
2022/08/20 09:58:54;;;;;;;24.15;15.27;;;19.60;99.90;;;;;;7309283;32;20108;-68
2022/08/20 10:03:02;;;;;;;24.63;16.12;;;19.70;99.90;;;;;;7318561;32;20232;-68
2022/08/20 10:07:07;;;;;;;22.98;15.48;;;19.80;99.90;;;;;;7315831;32;20156;-68
2022/08/20 10:11:09;;;;;;;24.30;15.25;;;20.00;99.90;;;;;;7313936;32;20099;-69
2022/08/20 10:15:11;;;;;;;24.08;15.80;;;19.90;99.90;;;;;;7316494;32;20573;-68
2022/08/20 10:19:13;;;;;;;30.75;17.58;;;19.90;99.90;;;;;;7319259;32;20911;-68
2022/08/20 10:23:14;;;;;;;31.87;17.85;;;19.80;99.90;;;;;;7319318;32;20792;-68
2022/08/20 10:27:16;;;;;;;31.12;18.45;;;19.70;99.90;;;;;;7320705;32;20120;-69
2022/08/20 10:31:18;;;;;;;27.92;18.00;;;19.80;99.90;;;;;;7312264;32;20159;-67
2022/08/20 10:35:20;;;;;;;26.25;17.75;;;19.80;99.90;;;;;;7319838;32;20164;-69
2022/08/20 10:39:22;;;;;;;29.65;18.00;;;19.70;99.90;;;;;;7319898;32;20201;-69
2022/08/20 10:43:24;;;;;;;32.75;18.15;;;19.70;99.90;;;;;;7319673;32;20157;-69
2022/08/20 10:47:29;;;;;;;29.35;17.52;;;19.80;99.90;;;;;;7319766;32;20123;-69
2022/08/20 10:51:30;;;;;;;29.80;18.42;;;20.00;99.90;;;;;;7314267;32;20203;-70
2022/08/20 10:55:33;;;;;;;27.98;18.90;;;20.00;99.90;;;;;;7315305;32;20186;-69
2022/08/20 10:59:40;;;;;;;27.55;18.27;;;20.00;99.90;;;;;;7313101;32;20157;-69
2022/08/20 11:03:42;;;;;;;33.55;19.80;;;20.30;99.90;;;;;;7310904;32;20262;-69
2022/08/20 11:07:44;;;;;;;27.52;18.50;;;20.40;99.90;;;;;;7319090;32;20210;-69
2022/08/20 11:11:57;;;;;;;28.60;18.42;;;20.60;99.90;;;;;;7316671;32;20092;-68
2022/08/20 11:16:00;;;;;;;28.33;18.25;;;20.90;99.90;;;;;;7318694;32;20103;-69
2022/08/20 11:20:04;;;;;;;25.50;17.73;;;21.00;99.90;;;;;;7315649;32;20653;-69
2022/08/20 11:24:06;;;;;;;25.73;17.30;;;21.70;99.90;;;;;;7319497;32;20567;-68
2022/08/20 11:28:08;;;;;;;30.67;17.30;;;22.00;99.90;;;;;;7306623;32;20242;-69
2022/08/20 11:32:10;;;;;;;23.23;15.75;;;22.10;99.90;;;;;;7317212;32;20634;-69
2022/08/20 11:36:12;;;;;;;26.27;15.93;;;22.20;99.90;;;;;;7308083;32;20139;-68
2022/08/20 11:40:14;;;;;;;25.35;16.70;;;22.70;99.90;;;;;;7314356;32;20327;-68
2022/08/20 11:44:16;;;;;;;23.92;16.62;;;22.50;99.90;;;;;;7304943;32;20193;-68
2022/08/20 11:48:22;;;;;;;23.10;16.07;;;22.60;99.90;;;;;;7316012;32;20716;-68
2022/08/20 11:52:25;;;;;;;20.20;14.07;;;22.60;99.90;;;;;;7315258;32;20165;-69
2022/08/20 11:56:29;;;;;;;17.60;12.90;;;23.00;99.90;;;;;;7304989;32;20119;-69
2022/08/20 12:00:31;;;;;;;21.42;15.43;;;23.40;99.90;;;;;;7315617;32;20126;-69
2022/08/20 12:04:34;;;;;;;22.27;15.85;;;23.50;99.90;;;;;;7305935;32;20183;-69
2022/08/20 12:08:38;;;;;;;23.83;16.05;;;23.50;99.90;;;;;;7323687;32;20493;-70
2022/08/20 12:12:40;;;;;;;19.45;12.77;;;23.70;99.90;;;;;;7323638;32;20126;-69
2022/08/20 12:16:41;;;;;;;21.80;16.02;;;23.60;99.90;;;;;;7324829;32;20289;-70
2022/08/20 12:20:43;;;;;;;20.12;14.40;;;23.90;99.90;;;;;;7322238;32;20470;-69
2022/08/20 12:24:45;;;;;;;16.90;12.82;;;23.90;99.90;;;;;;7319261;32;20555;-69
2022/08/20 12:28:47;;;;;;;19.85;14.45;;;23.70;99.90;;;;;;7317992;32;20115;-70
2022/08/20 12:32:49;;;;;;;18.23;13.35;;;23.40;99.90;;;;;;7306303;32;20902;-71
2022/08/20 12:36:59;;;;;;;18.10;13.82;;;23.30;99.90;;;;;;7323427;32;20214;-70
2022/08/20 12:41:01;;;;;;;15.10;12.88;;;23.00;99.90;;;;;;7321606;32;20229;-68
2022/08/20 12:45:04;;;;;;;15.43;11.43;;;23.30;99.90;;;;;;7311496;32;20095;-70
2022/08/20 12:49:05;;;;;;;17.87;13.50;;;23.70;99.90;;;;;;7321497;32;20526;-70
2022/08/20 12:53:07;;;;;;;12.43;10.27;;;23.90;99.90;;;;;;7305781;32;20104;-70
2022/08/20 12:57:27;;;;;;;14.32;11.23;;;23.90;99.90;;;;;;7308836;32;20160;-68
2022/08/20 13:01:28;;;;;;;17.45;11.05;;;23.90;99.90;;;;;;7317369;32;20108;-70
2022/08/20 13:05:32;;;;;;;16.95;10.48;;;23.80;99.90;;;;;;7306094;32;20746;-70
2022/08/20 13:09:34;;;;;;;20.90;11.32;;;23.90;99.90;;;;;;7316866;32;20108;-69
2022/08/20 13:13:56;;;;;;;14.82;10.25;;;23.80;99.90;;;;;;7321203;32;20507;-70
2022/08/20 13:18:07;;;;;;;13.95;8.75;;;23.70;99.90;;;;;;7321748;32;20193;-70
2022/08/20 13:22:09;;;;;;;15.35;10.32;;;23.60;99.90;;;;;;7323328;32;20214;-70
2022/08/20 13:26:11;;;;;;;17.75;9.75;;;23.70;99.90;;;;;;7319744;32;20147;-70
2022/08/20 13:30:19;;;;;;;18.08;9.20;;;23.80;99.90;;;;;;7322757;32;20283;-69
2022/08/20 13:34:20;;;;;;;16.65;8.43;;;24.00;99.90;;;;;;7317198;32;20563;-70
2022/08/20 13:38:23;;;;;;;13.30;7.95;;;24.10;99.90;;;;;;7311529;32;20168;-70
2022/08/20 13:42:26;;;;;;;15.95;8.45;;;24.10;99.90;;;;;;7317268;32;20161;-70
2022/08/20 13:46:28;;;;;;;11.75;6.87;;;24.20;99.90;;;;;;7315802;32;20160;-69
2022/08/20 13:50:30;;;;;;;13.85;8.18;;;24.30;99.90;;;;;;7322080;32;20103;-70
2022/08/20 13:54:32;;;;;;;11.77;7.68;;;24.50;99.90;;;;;;7306330;32;20162;-70
2022/08/20 13:58:35;;;;;;;16.20;7.50;;;24.70;99.90;;;;;;7308859;32;20179;-70
2022/08/20 14:02:38;;;;;;;12.82;7.53;;;24.60;99.90;;;;;;7316176;32;20132;-69
2022/08/20 14:06:40;;;;;;;14.70;8.27;;;24.60;99.90;;;;;;7313845;32;20586;-69
2022/08/20 14:10:43;;;;;;;11.27;6.87;;;24.70;99.90;;;;;;7318971;32;20194;-70
2022/08/20 14:14:48;;;;;;;12.63;6.55;;;24.60;99.90;;;;;;7318785;32;20127;-70
2022/08/20 14:18:50;;;;;;;11.63;6.32;;;24.60;99.90;;;;;;7320798;32;20550;-69
2022/08/20 14:22:54;;;;;;;13.55;7.30;;;24.60;99.90;;;;;;7314429;32;20165;-70
2022/08/20 14:26:56;;;;;;;16.77;7.35;;;24.30;99.90;;;;;;7304880;32;20227;-69
2022/08/20 14:30:58;;;;;;;15.05;7.40;;;24.10;99.90;;;;;;7301108;32;20472;-70
2022/08/20 14:35:01;;;;;;;9.00;6.28;;;24.20;99.90;;;;;;7312229;32;20177;-69
2022/08/20 14:39:02;;;;;;;16.58;6.50;;;24.20;99.90;;;;;;7308578;32;20278;-71
2022/08/20 14:43:04;;;;;;;13.15;6.12;;;24.10;99.90;;;;;;7311634;32;20588;-69
2022/08/20 14:47:12;;;;;;;18.85;6.93;;;24.10;99.90;;;;;;7324175;32;20526;-71
2022/08/20 14:51:14;;;;;;;16.33;6.75;;;23.90;99.90;;;;;;7323356;32;20222;-61
2022/08/20 14:55:20;;;;;;;12.70;6.15;;;24.30;99.90;;;;;;7312816;32;20593;-60
2022/08/20 14:59:21;;;;;;;13.07;5.70;;;24.30;99.90;;;;;;7314237;32;20761;-60
2022/08/20 15:03:29;;;;;;;13.80;6.32;;;24.30;99.90;;;;;;7315873;32;20288;-60
2022/08/20 15:07:34;;;;;;;12.80;5.93;;;24.10;99.90;;;;;;7316396;32;20124;-58
2022/08/20 15:11:38;;;;;;;10.05;5.65;;;24.10;99.90;;;;;;7314992;32;20359;-59
2022/08/20 15:15:40;;;;;;;12.82;6.70;;;24.10;99.90;;;;;;7305899;32;20250;-59
2022/08/20 15:19:42;;;;;;;12.98;5.22;;;24.50;99.90;;;;;;7302155;32;20199;-67
2022/08/20 15:23:44;;;;;;;10.45;5.20;;;24.60;99.90;;;;;;7308684;32;20248;-67
2022/08/20 15:27:46;;;;;;;13.23;5.40;;;24.60;99.90;;;;;;7307573;32;20210;-66
2022/08/20 15:31:48;;;;;;;13.50;5.18;;;24.60;99.90;;;;;;7307894;32;20212;-65
2022/08/20 15:35:49;;;;;;;10.77;4.55;;;24.60;99.90;;;;;;7312178;32;20835;-66
2022/08/20 15:39:52;;;;;;;8.38;3.85;;;24.60;99.90;;;;;;7314477;32;20515;-66
2022/08/20 15:43:54;;;;;;;9.70;4.85;;;24.60;99.90;;;;;;7317606;32;20187;-66
2022/08/20 15:48:10;;;;;;;10.02;4.32;;;24.60;99.90;;;;;;7311353;32;20775;-59
2022/08/20 15:52:12;;;;;;;11.12;4.57;;;24.60;99.90;;;;;;7309020;32;21403;-60
2022/08/20 15:56:24;;;;;;;7.03;3.40;;;24.60;99.90;;;;;;7314538;32;20186;-61
2022/08/20 16:00:38;;;;;;;7.78;3.15;;;24.70;99.90;;;;;;7311114;32;20219;-61
2022/08/20 16:04:51;;;;;;;8.30;3.20;;;24.30;99.90;;;;;;7308235;32;20198;-60
2022/08/20 16:09:34;;;;;;;8.43;3.75;;;24.30;99.90;;;;;;7309550;32;20107;-61
2022/08/20 16:13:48;;;;;;;10.82;4.03;;;24.30;99.90;;;;;;7310835;32;20591;-60
2022/08/20 16:17:57;;;;;;;8.25;4.15;;;24.20;99.90;;;;;;7316352;32;20202;-60
2022/08/20 16:22:02;;;;;;;10.98;3.80;;;24.20;99.90;;;;;;7307627;32;20498;-58
2022/08/20 16:26:09;;;;;;;8.10;3.33;;;24.20;99.90;;;;;;7306028;32;20296;-60
2022/08/20 16:30:21;;;;;;;8.80;3.15;;;24.10;99.90;;;;;;7308954;32;20637;-60
2022/08/20 16:35:22;;;;;;;9.57;3.50;;;24.00;99.90;;;;;;7300389;32;20151;-61
2022/08/20 16:39:56;;;;;;;8.15;3.17;;;23.70;99.90;;;;;;7212601;32;20113;-67
2022/08/20 16:44:03;;;;;;;12.13;3.92;;;23.80;99.90;;;;;;7286351;32;20127;-66
2022/08/20 16:48:08;;;;;;;7.97;3.42;;;23.70;99.90;;;;;;7311386;32;20099;-60
2022/08/20 16:52:09;;;;;;;8.77;3.78;;;23.60;99.90;;;;;;7303175;32;20135;-61
2022/08/20 16:56:11;;;;;;;8.55;2.95;;;23.50;99.90;;;;;;7312712;32;22863;-60
2022/08/20 17:00:33;;;;;;;9.07;3.28;;;23.50;99.90;;;;;;7311512;32;20206;-61
2022/08/20 17:04:48;;;;;;;9.77;3.20;;;23.40;99.90;;;;;;7315877;32;20104;-59
2022/08/20 17:09:13;;;;;;;10.57;3.10;;;23.30;99.90;;;;;;7310017;32;20095;-60
2022/08/20 17:13:29;;;;;;;8.98;3.55;;;23.20;99.90;;;;;;7319330;32;20124;-61
2022/08/20 17:17:34;;;;;;;10.07;3.67;;;23.20;99.90;;;;;;7321922;32;20135;-67
2022/08/20 17:21:38;;;;;;;10.05;4.07;;;23.00;99.90;;;;;;7320356;32;20120;-68
2022/08/20 17:25:39;;;;;;;9.95;3.80;;;23.00;99.90;;;;;;7320237;32;20221;-69
2022/08/20 17:29:54;;;;;;;11.55;3.70;;;22.90;99.90;;;;;;7320441;32;20508;-69
2022/08/20 17:33:56;;;;;;;9.25;3.80;;;22.70;99.90;;;;;;7324584;32;20091;-67
2022/08/20 17:38:00;;;;;;;13.13;5.03;;;22.50;99.90;;;;;;7321413;32;20557;-65
2022/08/20 17:42:13;;;;;;;11.68;4.60;;;22.40;99.90;;;;;;7320407;32;20306;-62
2022/08/20 17:46:16;;;;;;;13.30;4.35;;;22.30;99.90;;;;;;7316191;32;20191;-60
2022/08/20 17:50:25;;;;;;;8.93;4.30;;;22.20;99.90;;;;;;7321869;32;20131;-60
2022/08/20 17:54:31;;;;;;;10.77;4.45;;;22.00;99.90;;;;;;7318409;32;20183;-59
2022/08/20 17:58:53;;;;;;;11.20;4.10;;;21.90;99.90;;;;;;7319101;32;20320;-60
2022/08/20 18:03:12;;;;;;;10.75;4.12;;;21.80;99.90;;;;;;7316290;32;20130;-65
2022/08/20 18:07:51;;;;;;;13.30;4.55;;;21.70;99.90;;;;;;7294499;32;20132;-67
2022/08/20 18:12:19;;;;;;;11.25;5.15;;;21.70;99.90;;;;;;7302463;32;20174;-67
2022/08/20 18:17:02;;;;;;;11.40;4.72;;;21.60;99.90;;;;;;7307130;32;20684;-65
2022/08/20 18:21:13;;;;;;;12.88;4.80;;;21.60;99.90;;;;;;7315519;32;20124;-66
2022/08/20 18:25:36;;;;;;;12.52;4.97;;;21.40;99.90;;;;;;7315005;32;20682;-66
2022/08/20 18:29:41;;;;;;;9.93;5.25;;;21.20;99.90;;;;;;7316276;32;20245;-67
2022/08/20 18:33:44;;;;;;;8.70;4.78;;;21.00;99.90;;;;;;7314809;32;20528;-66
2022/08/20 18:37:47;;;;;;;11.18;4.40;;;20.80;99.90;;;;;;7314462;32;20221;-67
2022/08/20 18:41:58;;;;;;;14.00;5.40;;;20.40;99.90;;;;;;7302187;32;20107;-66
2022/08/20 18:46:20;;;;;;;9.60;4.97;;;20.20;99.90;;;;;;7305568;32;20272;-60
2022/08/20 18:50:41;;;;;;;14.60;5.35;;;19.80;99.90;;;;;;7318352;32;20234;-66
2022/08/20 18:54:50;;;;;;;10.50;5.43;;;19.60;99.90;;;;;;7314260;32;20111;-65
2022/08/20 18:59:17;;;;;;;14.63;5.72;;;19.30;99.90;;;;;;7315433;32;20283;-64
2022/08/20 19:03:29;;;;;;;13.77;5.87;;;19.10;99.90;;;;;;7302365;32;20104;-62
2022/08/20 19:07:49;;;;;;;18.92;6.70;;;18.90;99.90;;;;;;7315892;32;20345;-63
2022/08/20 19:12:04;;;;;;;12.07;7.18;;;18.60;99.90;;;;;;7314459;32;20218;-65
2022/08/20 19:16:33;;;;;;;14.07;7.03;;;18.40;99.90;;;;;;7304052;32;20264;-66
2022/08/20 19:20:39;;;;;;;14.25;7.00;;;18.20;99.90;;;;;;7314893;32;20135;-63
2022/08/20 19:24:43;;;;;;;12.23;8.60;;;18.10;99.90;;;;;;7301984;32;20268;-63
2022/08/20 19:28:56;;;;;;;12.90;7.62;;;17.90;99.90;;;;;;7312367;32;20119;-63
2022/08/20 19:32:58;;;;;;;14.07;7.22;;;17.70;99.90;;;;;;7320644;32;20794;-63
2022/08/20 19:37:25;;;;;;;15.65;7.65;;;17.60;99.90;;;;;;7319880;32;20169;-64
2022/08/20 19:41:46;;;;;;;18.65;7.85;;;17.50;99.90;;;;;;7308169;32;20124;-65
2022/08/20 19:45:51;;;;;;;17.45;7.68;;;17.30;99.90;;;;;;7317826;32;20146;-63
2022/08/20 19:50:13;;;;;;;14.80;7.85;;;17.20;99.90;;;;;;7320230;32;20577;-64
2022/08/20 19:54:25;;;;;;;17.08;12.10;;;17.10;99.90;;;;;;7298770;32;20211;-64
2022/08/20 19:58:29;;;;;;;13.57;7.55;;;17.00;99.90;;;;;;7302344;32;20276;-64
2022/08/20 20:02:33;;;;;;;16.83;8.27;;;16.90;99.90;;;;;;7311466;32;20206;-64
2022/08/20 20:06:42;;;;;;;19.23;13.07;;;16.90;99.90;;;;;;7312733;32;20209;-65
2022/08/20 20:10:51;;;;;;;14.35;7.93;;;16.70;99.90;;;;;;7311839;32;20564;-66
2022/08/20 20:14:54;;;;;;;14.48;7.28;;;16.70;99.90;;;;;;7307760;32;20984;-65
2022/08/20 20:18:56;;;;;;;18.75;7.97;;;16.50;99.90;;;;;;7307836;32;21037;-65
2022/08/20 20:23:24;;;;;;;11.80;7.95;;;16.40;99.90;;;;;;7307240;32;20300;-65
2022/08/20 20:27:27;;;;;;;14.68;9.00;;;16.40;99.90;;;;;;7312373;32;20150;-64
2022/08/20 20:31:35;;;;;;;16.50;8.18;;;16.20;99.90;;;;;;7314008;32;20568;-66
2022/08/20 20:35:37;;;;;;;10.02;7.22;;;16.10;99.90;;;;;;7317939;32;20092;-66
2022/08/20 20:39:47;;;;;;;12.50;7.93;;;16.10;99.90;;;;;;7315436;32;20123;-65
2022/08/20 20:43:59;;;;;;;9.10;6.97;;;16.00;99.90;;;;;;7319425;32;20491;-67
2022/08/20 20:48:20;;;;;;;10.15;7.55;;;16.00;99.90;;;;;;7311753;32;20230;-65
2022/08/20 20:52:27;;;;;;;14.00;7.78;;;15.90;99.90;;;;;;7314990;32;20155;-66
2022/08/20 20:56:43;;;;;;;14.60;8.07;;;15.80;99.90;;;;;;7321146;32;20204;-62
2022/08/20 21:00:44;;;;;;;11.95;7.45;;;15.80;99.90;;;;;;7316035;32;20182;-65
2022/08/20 21:04:48;;;;;;;13.77;7.20;;;15.70;99.90;;;;;;7311524;32;20271;-63